createdAt,value
2022-09-21T00:00:02.981Z,932.41
2022-09-21T00:01:03.059Z,932.44
2022-09-21T00:02:03.115Z,932.45
2022-09-21T00:03:03.029Z,932.44
2022-09-21T00:04:03.048Z,932.48
2022-09-21T00:05:03.054Z,932.46
2022-09-21T00:06:03.068Z,932.44
2022-09-21T00:07:03.085Z,932.45
2022-09-21T00:08:03.098Z,932.47
2022-09-21T00:09:03.121Z,932.47
2022-09-21T00:10:03.127Z,932.45
2022-09-21T00:11:03.162Z,932.47
2022-09-21T00:12:03.158Z,932.44
2022-09-21T00:13:03.172Z,932.43
2022-09-21T00:14:03.186Z,932.43
2022-09-21T00:15:03.203Z,932.43
2022-09-21T00:16:03.217Z,932.41
2022-09-21T00:17:03.231Z,932.41
2022-09-21T00:18:03.245Z,932.41
2022-09-21T00:20:03.276Z,932.41
2022-09-21T00:21:03.288Z,932.45
2022-09-21T00:22:03.305Z,932.41
2022-09-21T00:23:03.320Z,932.43
2022-09-21T00:24:03.342Z,932.44
2022-09-21T00:25:03.353Z,932.44
2022-09-21T00:26:03.363Z,932.43
2022-09-21T00:27:03.397Z,932.44
2022-09-21T00:28:03.393Z,932.45
2022-09-21T00:29:03.408Z,932.47
2022-09-21T00:30:03.425Z,932.51
2022-09-21T00:31:03.437Z,932.55
2022-09-21T00:32:03.498Z,932.62
2022-09-21T00:33:03.467Z,932.58
2022-09-21T00:34:03.496Z,932.61
2022-09-21T00:35:03.496Z,932.58
2022-09-21T00:36:03.509Z,932.59
2022-09-21T00:37:03.526Z,932.57
2022-09-21T00:38:03.541Z,932.55
2022-09-21T00:39:03.554Z,932.55
2022-09-21T00:40:03.580Z,932.56
2022-09-21T00:41:03.586Z,932.60
2022-09-21T00:42:03.599Z,932.59
2022-09-21T00:43:03.632Z,932.61
2022-09-21T00:44:03.628Z,932.65
2022-09-21T00:45:03.641Z,932.68
2022-09-21T00:46:03.682Z,932.70
2022-09-21T00:47:03.684Z,932.67
2022-09-21T00:48:03.688Z,932.69
2022-09-21T00:49:03.701Z,932.76
2022-09-21T00:50:03.716Z,932.77
2022-09-21T00:51:03.733Z,932.76
2022-09-21T00:52:03.748Z,932.83
2022-09-21T00:53:03.759Z,932.86
2022-09-21T00:54:03.777Z,932.92
2022-09-21T00:55:03.788Z,932.98
2022-09-21T00:56:03.805Z,933.02
2022-09-21T00:57:03.818Z,933.00
2022-09-21T00:58:03.870Z,933.02
2022-09-21T00:59:03.868Z,933.04
2022-09-21T01:00:03.862Z,933.09
2022-09-21T01:01:03.924Z,933.08
2022-09-21T01:02:03.928Z,933.06
2022-09-21T01:03:03.907Z,933.05
2022-09-21T01:04:03.921Z,933.05
2022-09-21T01:05:03.935Z,933.03
2022-09-21T01:06:03.951Z,933.05
2022-09-21T01:07:03.966Z,933.04
2022-09-21T01:08:03.981Z,933.06
2022-09-21T01:09:04.400Z,933.09
2022-09-21T01:10:04.011Z,933.04
2022-09-21T01:11:04.026Z,933.04
2022-09-21T01:12:04.038Z,933.01
2022-09-21T01:13:04.053Z,933.00
2022-09-21T01:14:04.072Z,932.99
2022-09-21T01:15:04.100Z,933.02
2022-09-21T01:16:04.191Z,933.01
2022-09-21T01:17:04.111Z,933.00
2022-09-21T01:18:04.127Z,932.96
2022-09-21T01:19:04.142Z,932.95
2022-09-21T01:20:04.155Z,932.94
2022-09-21T01:21:04.171Z,932.95
2022-09-21T01:22:04.185Z,932.93
2022-09-21T01:23:04.301Z,932.92
2022-09-21T01:24:04.216Z,932.90
2022-09-21T01:25:04.230Z,932.98
2022-09-21T01:26:04.243Z,932.98
2022-09-21T01:27:04.258Z,933.00
2022-09-21T01:28:04.273Z,933.03
2022-09-21T01:29:04.287Z,933.01
2022-09-21T01:30:04.303Z,933.07
2022-09-21T01:31:04.334Z,933.15
2022-09-21T01:32:04.330Z,933.16
2022-09-21T01:33:04.351Z,933.17
2022-09-21T01:34:04.360Z,933.19
2022-09-21T01:35:04.476Z,933.24
2022-09-21T01:36:04.390Z,933.27
2022-09-21T01:37:04.402Z,933.30
2022-09-21T01:38:04.417Z,933.32
2022-09-21T01:39:04.432Z,933.37
2022-09-21T01:40:04.519Z,933.36
2022-09-21T01:41:04.462Z,933.35
2022-09-21T01:42:04.475Z,933.37
2022-09-21T01:43:04.490Z,933.38
2022-09-21T01:44:04.506Z,933.39
2022-09-21T01:45:04.521Z,933.40
2022-09-21T01:46:04.581Z,933.36
2022-09-21T01:47:04.568Z,933.41
2022-09-21T01:48:04.564Z,933.41
2022-09-21T01:49:04.580Z,933.46
2022-09-21T01:50:04.605Z,933.46
2022-09-21T01:51:04.607Z,933.50
2022-09-21T01:52:04.624Z,933.51
2022-09-21T01:53:04.638Z,933.54
2022-09-21T01:54:04.649Z,933.54
2022-09-21T01:55:04.665Z,933.47
2022-09-21T01:56:04.678Z,933.46
2022-09-21T01:57:04.693Z,933.45
2022-09-21T01:58:04.708Z,933.45
2022-09-21T01:59:04.727Z,933.44
2022-09-21T02:00:04.737Z,933.49
2022-09-21T02:01:04.847Z,933.46
2022-09-21T02:02:04.827Z,933.46
2022-09-21T02:03:04.797Z,933.49
2022-09-21T02:04:04.796Z,933.53
2022-09-21T02:05:04.807Z,933.59
2022-09-21T02:06:04.823Z,933.62
2022-09-21T02:07:04.840Z,933.60
2022-09-21T02:08:04.853Z,933.60
2022-09-21T02:09:04.868Z,933.57
2022-09-21T02:10:04.933Z,933.56
2022-09-21T02:11:04.897Z,933.61
2022-09-21T02:12:04.911Z,933.61
2022-09-21T02:13:04.923Z,933.62
2022-09-21T02:14:05.003Z,933.62
2022-09-21T02:15:04.955Z,933.63
2022-09-21T02:16:05.001Z,933.63
2022-09-21T02:17:04.982Z,933.62
2022-09-21T02:18:04.997Z,933.60
2022-09-21T02:19:05.029Z,933.59
2022-09-21T02:20:05.027Z,933.64
2022-09-21T02:21:05.041Z,933.60
2022-09-21T02:22:05.057Z,933.61
2022-09-21T02:23:05.071Z,933.56
2022-09-21T02:24:05.083Z,933.53
2022-09-21T02:25:05.100Z,933.51
2022-09-21T02:26:05.112Z,933.54
2022-09-21T02:27:05.129Z,933.47
2022-09-21T02:28:05.142Z,933.46
2022-09-21T02:29:05.155Z,933.41
2022-09-21T02:30:05.170Z,933.39
2022-09-21T02:31:05.256Z,933.40
2022-09-21T02:32:05.202Z,933.40
2022-09-21T02:33:05.212Z,933.37
2022-09-21T02:34:05.227Z,933.39
2022-09-21T02:35:05.259Z,933.33
2022-09-21T02:36:05.258Z,933.34
2022-09-21T02:37:05.271Z,933.29
2022-09-21T02:38:05.285Z,933.26
2022-09-21T02:39:05.299Z,933.22
2022-09-21T02:40:05.340Z,933.23
2022-09-21T02:41:05.328Z,933.23
2022-09-21T02:42:05.342Z,933.24
2022-09-21T02:43:05.357Z,933.26
2022-09-21T02:44:05.468Z,933.26
2022-09-21T02:45:05.385Z,933.28
2022-09-21T02:46:05.400Z,933.34
2022-09-21T02:47:05.415Z,933.33
2022-09-21T02:48:05.432Z,933.31
2022-09-21T02:49:05.444Z,933.31
2022-09-21T02:50:05.460Z,933.29
2022-09-21T02:51:06.099Z,933.28
2022-09-21T02:52:05.487Z,933.31
2022-09-21T02:53:05.516Z,933.33
2022-09-21T02:54:05.517Z,933.28
2022-09-21T02:55:05.530Z,933.30
2022-09-21T02:56:05.545Z,933.32
2022-09-21T02:57:05.559Z,933.25
2022-09-21T02:58:05.573Z,933.21
2022-09-21T02:59:05.759Z,933.22
2022-09-21T03:00:05.603Z,933.18
2022-09-21T03:01:05.666Z,933.18
2022-09-21T03:02:05.679Z,933.16
2022-09-21T03:03:05.649Z,933.16
2022-09-21T03:04:05.661Z,933.18
2022-09-21T03:05:05.674Z,933.14
2022-09-21T03:06:05.689Z,933.11
2022-09-21T03:07:05.721Z,933.13
2022-09-21T03:08:05.721Z,933.12
2022-09-21T03:09:05.734Z,933.12
2022-09-21T03:10:05.746Z,933.12
2022-09-21T03:11:05.762Z,933.08
2022-09-21T03:12:05.776Z,933.13
2022-09-21T03:13:05.788Z,933.12
2022-09-21T03:14:05.886Z,933.12
2022-09-21T03:15:05.817Z,933.14
2022-09-21T03:16:05.954Z,933.11
2022-09-21T03:17:05.846Z,933.12
2022-09-21T03:18:05.860Z,933.11
2022-09-21T03:19:05.875Z,933.13
2022-09-21T03:20:05.889Z,933.12
2022-09-21T03:21:05.902Z,933.14
2022-09-21T03:22:05.917Z,933.11
2022-09-21T03:23:06.083Z,933.07
2022-09-21T03:24:05.947Z,933.04
2022-09-21T03:25:05.960Z,933.04
2022-09-21T03:26:05.977Z,933.05
2022-09-21T03:27:05.989Z,933.03
2022-09-21T03:28:06.004Z,933.01
2022-09-21T03:29:06.194Z,933.00
2022-09-21T03:30:06.038Z,933.04
2022-09-21T03:31:06.095Z,933.04
2022-09-21T03:32:06.063Z,933.07
2022-09-21T03:33:06.080Z,933.04
2022-09-21T03:34:06.089Z,933.02
2022-09-21T03:35:06.105Z,933.03
2022-09-21T03:36:06.121Z,933.06
2022-09-21T03:37:06.131Z,933.02
2022-09-21T03:38:06.146Z,933.01
2022-09-21T03:39:06.182Z,933.00
2022-09-21T03:40:06.222Z,933.00
2022-09-21T03:41:06.190Z,932.98
2022-09-21T03:42:06.204Z,932.98
2022-09-21T03:43:06.219Z,932.99
2022-09-21T03:44:06.233Z,933.02
2022-09-21T03:45:06.247Z,932.99
2022-09-21T03:46:06.314Z,932.95
2022-09-21T03:47:06.276Z,932.90
2022-09-21T03:48:06.291Z,932.90
2022-09-21T03:49:06.305Z,932.88
2022-09-21T03:50:09.802Z,932.90
2022-09-21T03:51:06.333Z,932.88
2022-09-21T03:52:06.348Z,932.88
2022-09-21T03:53:06.362Z,932.90
2022-09-21T03:54:06.375Z,932.86
2022-09-21T03:55:06.593Z,932.85
2022-09-21T03:56:06.404Z,932.83
2022-09-21T03:57:06.424Z,932.80
2022-09-21T03:58:06.434Z,932.79
2022-09-21T03:59:09.485Z,932.80
2022-09-21T04:00:06.463Z,932.80
2022-09-21T04:01:06.600Z,932.80
2022-09-21T04:02:06.492Z,932.82
2022-09-21T04:03:06.505Z,932.79
2022-09-21T04:04:06.521Z,932.78
2022-09-21T04:05:06.533Z,932.76
2022-09-21T04:06:06.548Z,932.71
2022-09-21T04:07:06.561Z,932.68
2022-09-21T04:08:06.576Z,932.72
2022-09-21T04:09:06.589Z,932.72
2022-09-21T04:10:06.609Z,932.75
2022-09-21T04:11:06.713Z,932.70
2022-09-21T04:12:06.632Z,932.72
2022-09-21T04:13:06.647Z,932.70
2022-09-21T04:14:06.661Z,932.71
2022-09-21T04:15:06.675Z,932.68
2022-09-21T04:16:06.733Z,932.68
2022-09-21T04:17:06.703Z,932.67
2022-09-21T04:18:06.717Z,932.67
2022-09-21T04:19:06.824Z,932.65
2022-09-21T04:20:06.749Z,932.65
2022-09-21T04:21:06.762Z,932.69
2022-09-21T04:22:06.774Z,932.66
2022-09-21T04:23:06.800Z,932.69
2022-09-21T04:24:06.802Z,932.66
2022-09-21T04:25:06.817Z,932.70
2022-09-21T04:26:06.831Z,932.74
2022-09-21T04:27:07.485Z,932.76
2022-09-21T04:28:06.859Z,932.72
2022-09-21T04:29:07.169Z,932.73
2022-09-21T04:30:06.887Z,932.76
2022-09-21T04:31:06.964Z,932.77
2022-09-21T04:32:06.924Z,932.73
2022-09-21T04:33:06.930Z,932.69
2022-09-21T04:34:06.944Z,932.73
2022-09-21T04:35:06.959Z,932.72
2022-09-21T04:36:06.971Z,932.73
2022-09-21T04:37:06.987Z,932.76
2022-09-21T04:38:07.000Z,932.73
2022-09-21T04:39:07.014Z,932.75
2022-09-21T04:40:07.090Z,932.78
2022-09-21T04:41:07.043Z,932.74
2022-09-21T04:42:07.056Z,932.74
2022-09-21T04:43:07.198Z,932.72
2022-09-21T04:44:07.085Z,932.70
2022-09-21T04:45:07.100Z,932.66
2022-09-21T04:46:07.162Z,932.66
2022-09-21T04:47:07.128Z,932.64
2022-09-21T04:48:07.142Z,932.68
2022-09-21T04:49:07.155Z,932.68
2022-09-21T04:50:07.172Z,932.74
2022-09-21T04:51:07.185Z,932.68
2022-09-21T04:52:07.198Z,932.68
2022-09-21T04:53:07.213Z,932.66
2022-09-21T04:54:07.228Z,932.66
2022-09-21T04:55:07.241Z,932.65
2022-09-21T04:56:07.260Z,932.61
2022-09-21T04:57:07.269Z,932.62
2022-09-21T04:58:07.282Z,932.62
2022-09-21T04:59:07.351Z,932.61
2022-09-21T05:00:07.313Z,932.63
2022-09-21T05:01:07.392Z,932.57
2022-09-21T05:02:07.340Z,932.54
2022-09-21T05:03:07.353Z,932.55
2022-09-21T05:04:07.371Z,932.56
2022-09-21T05:05:07.381Z,932.56
2022-09-21T05:06:07.395Z,932.56
2022-09-21T05:07:07.411Z,932.58
2022-09-21T05:08:07.424Z,932.60
2022-09-21T05:09:07.437Z,932.61
2022-09-21T05:10:07.452Z,932.56
2022-09-21T05:11:07.465Z,932.55
2022-09-21T05:12:07.480Z,932.59
2022-09-21T05:13:07.494Z,932.62
2022-09-21T05:14:07.508Z,932.61
2022-09-21T05:15:07.540Z,932.65
2022-09-21T05:16:07.594Z,932.65
2022-09-21T05:17:07.550Z,932.59
2022-09-21T05:18:07.564Z,932.61
2022-09-21T05:19:07.579Z,932.58
2022-09-21T05:20:07.594Z,932.62
2022-09-21T05:21:07.612Z,932.59
2022-09-21T05:22:07.620Z,932.63
2022-09-21T05:23:07.635Z,932.66
2022-09-21T05:24:07.649Z,932.63
2022-09-21T05:25:07.674Z,932.66
2022-09-21T05:26:07.676Z,932.61
2022-09-21T05:27:07.691Z,932.65
2022-09-21T05:28:07.718Z,932.60
2022-09-21T05:29:07.719Z,932.58
2022-09-21T05:30:07.732Z,932.56
2022-09-21T05:31:17.574Z,932.61
2022-09-21T05:32:07.761Z,932.56
2022-09-21T05:33:07.776Z,932.54
2022-09-21T05:34:07.874Z,932.54
2022-09-21T05:35:07.807Z,932.51
2022-09-21T05:36:07.818Z,932.54
2022-09-21T05:37:07.830Z,932.51
2022-09-21T05:38:07.845Z,932.48
2022-09-21T05:39:07.860Z,932.48
2022-09-21T05:40:07.916Z,932.47
2022-09-21T05:41:07.886Z,932.42
2022-09-21T05:42:07.902Z,932.42
2022-09-21T05:43:07.916Z,932.46
2022-09-21T05:44:07.930Z,932.45
2022-09-21T05:45:07.943Z,932.51
2022-09-21T05:46:08.038Z,932.49
2022-09-21T05:47:07.989Z,932.54
2022-09-21T05:48:07.988Z,932.53
2022-09-21T05:49:07.998Z,932.48
2022-09-21T05:50:08.014Z,932.53
2022-09-21T05:51:08.028Z,932.51
2022-09-21T05:52:08.041Z,932.52
2022-09-21T05:53:08.056Z,932.46
2022-09-21T05:54:08.070Z,932.46
2022-09-21T05:55:08.090Z,932.50
2022-09-21T05:56:08.097Z,932.47
2022-09-21T05:57:08.112Z,932.52
2022-09-21T05:58:08.127Z,932.49
2022-09-21T05:59:08.138Z,932.50
2022-09-21T06:00:08.153Z,932.51
2022-09-21T06:01:08.227Z,932.48
2022-09-21T06:02:08.235Z,932.44
2022-09-21T06:03:08.241Z,932.37
2022-09-21T06:04:08.235Z,932.31
2022-09-21T06:05:08.223Z,932.28
2022-09-21T06:06:08.237Z,932.22
2022-09-21T06:07:08.252Z,932.19
2022-09-21T06:08:08.266Z,932.17
2022-09-21T06:09:08.277Z,932.13
2022-09-21T06:10:08.293Z,932.12
2022-09-21T06:11:08.307Z,932.13
2022-09-21T06:12:08.320Z,932.16
2022-09-21T06:13:08.333Z,932.13
2022-09-21T06:14:08.349Z,932.16
2022-09-21T06:15:08.367Z,932.19
2022-09-21T06:16:08.380Z,932.14
2022-09-21T06:17:08.389Z,932.12
2022-09-21T06:18:08.407Z,932.05
2022-09-21T06:19:08.437Z,932.08
2022-09-21T06:20:08.432Z,932.04
2022-09-21T06:21:08.447Z,932.02
2022-09-21T06:22:08.460Z,932.00
2022-09-21T06:23:08.475Z,931.98
2022-09-21T06:24:08.488Z,931.98
2022-09-21T06:25:08.501Z,931.94
2022-09-21T06:26:08.517Z,931.89
2022-09-21T06:27:08.532Z,931.87
2022-09-21T06:28:08.545Z,931.89
2022-09-21T06:29:08.558Z,931.87
2022-09-21T06:30:08.571Z,931.90
2022-09-21T06:31:08.647Z,931.90
2022-09-21T06:32:08.599Z,931.89
2022-09-21T06:33:09.018Z,931.90
2022-09-21T06:34:08.702Z,931.87
2022-09-21T06:35:08.662Z,931.92
2022-09-21T06:36:08.657Z,931.87
2022-09-21T06:37:08.669Z,931.85
2022-09-21T06:38:08.686Z,931.86
2022-09-21T06:39:08.697Z,931.83
2022-09-21T06:40:08.730Z,931.81
2022-09-21T06:41:08.723Z,931.83
2022-09-21T06:42:08.744Z,931.78
2022-09-21T06:43:08.752Z,931.80
2022-09-21T06:44:08.767Z,931.74
2022-09-21T06:45:08.779Z,931.80
2022-09-21T06:46:08.818Z,931.81
2022-09-21T06:47:08.808Z,931.82
2022-09-21T06:48:08.822Z,931.85
2022-09-21T06:49:08.835Z,931.82
2022-09-21T06:50:08.851Z,931.75
2022-09-21T06:51:08.883Z,931.77
2022-09-21T06:52:08.877Z,931.79
2022-09-21T06:53:08.892Z,931.84
2022-09-21T06:54:08.905Z,931.84
2022-09-21T06:55:08.919Z,931.83
2022-09-21T06:56:08.933Z,931.87
2022-09-21T06:57:08.948Z,931.84
2022-09-21T06:58:08.960Z,931.87
2022-09-21T06:59:08.973Z,931.91
2022-09-21T07:00:08.989Z,931.90
2022-09-21T07:01:09.113Z,931.91
2022-09-21T07:02:09.169Z,931.96
2022-09-21T07:03:09.032Z,931.98
2022-09-21T07:04:09.115Z,932.02
2022-09-21T07:05:09.060Z,932.04
2022-09-21T07:06:09.073Z,932.04
2022-09-21T07:07:09.103Z,932.07
2022-09-21T07:10:05.007Z,932.02
2022-09-21T07:10:14.357Z,932.02
2022-09-21T07:11:09.140Z,931.95
2022-09-21T07:12:09.156Z,931.96
2022-09-21T07:13:09.169Z,931.98
2022-09-21T07:14:09.184Z,932.06
2022-09-21T07:15:09.197Z,932.10
2022-09-21T07:16:09.353Z,932.09
2022-09-21T07:17:09.558Z,932.08
2022-09-21T07:18:09.237Z,932.18
2022-09-21T07:19:11.299Z,932.20
2022-09-21T07:20:09.266Z,932.22
2022-09-21T07:21:09.279Z,932.26
2022-09-21T07:22:09.293Z,932.25
2022-09-21T07:23:09.324Z,932.23
2022-09-21T07:24:12.190Z,932.22
2022-09-21T07:25:09.335Z,932.22
2022-09-21T07:26:09.351Z,932.22
2022-09-21T07:27:09.363Z,932.21
2022-09-21T07:28:09.376Z,932.23
2022-09-21T07:29:09.394Z,932.22
2022-09-21T07:30:09.409Z,932.28
2022-09-21T07:31:09.417Z,932.34
2022-09-21T07:32:09.431Z,932.32
2022-09-21T07:33:09.447Z,932.33
2022-09-21T07:34:09.460Z,932.40
2022-09-21T07:35:09.477Z,932.35
2022-09-21T07:36:09.487Z,932.31
2022-09-21T07:37:09.500Z,932.33
2022-09-21T07:38:10.323Z,932.33
2022-09-21T07:39:09.567Z,932.24
2022-09-21T07:40:09.657Z,932.31
2022-09-21T07:41:09.555Z,932.32
2022-09-21T07:42:09.568Z,932.37
2022-09-21T07:43:09.583Z,932.45
2022-09-21T07:44:09.596Z,932.40
2022-09-21T07:45:09.611Z,932.44
2022-09-21T07:46:09.747Z,932.45
2022-09-21T07:47:09.640Z,932.48
2022-09-21T07:48:09.652Z,932.55
2022-09-21T07:49:09.665Z,932.59
2022-09-21T07:50:09.681Z,932.66
2022-09-21T07:51:09.693Z,932.66
2022-09-21T07:52:11.196Z,932.65
2022-09-21T07:53:09.721Z,932.69
2022-09-21T07:54:09.736Z,932.69
2022-09-21T07:55:09.765Z,932.70
2022-09-21T07:56:09.763Z,932.75
2022-09-21T07:57:09.777Z,932.71
2022-09-21T07:58:09.788Z,932.69
2022-09-21T07:59:09.807Z,932.73
2022-09-21T08:00:09.824Z,932.70
2022-09-21T08:01:09.896Z,932.76
2022-09-21T08:02:09.896Z,932.83
2022-09-21T08:03:09.859Z,932.79
2022-09-21T08:04:09.942Z,932.87
2022-09-21T08:05:09.886Z,932.88
2022-09-21T08:06:09.908Z,932.84
2022-09-21T08:07:09.912Z,932.90
2022-09-21T08:08:09.925Z,932.88
2022-09-21T08:09:09.958Z,932.90
2022-09-21T08:10:09.955Z,932.87
2022-09-21T08:11:09.987Z,932.87
2022-09-21T08:12:09.983Z,932.87
2022-09-21T08:13:09.995Z,932.86
2022-09-21T08:14:10.010Z,932.90
2022-09-21T08:15:24.993Z,932.90
2022-09-21T08:16:10.198Z,932.97
2022-09-21T08:17:10.056Z,932.98
2022-09-21T08:18:10.064Z,932.97
2022-09-21T08:19:10.077Z,932.95
2022-09-21T08:20:10.093Z,932.92
2022-09-21T08:21:12.045Z,932.89
2022-09-21T08:22:10.125Z,932.88
2022-09-21T08:23:10.135Z,932.88
2022-09-21T08:24:10.147Z,932.85
2022-09-21T08:25:10.159Z,932.83
2022-09-21T08:26:10.175Z,932.78
2022-09-21T08:27:10.203Z,932.74
2022-09-21T08:28:10.332Z,932.68
2022-09-21T08:29:10.215Z,932.79
2022-09-21T08:30:10.229Z,932.77
2022-09-21T08:31:10.343Z,932.76
2022-09-21T08:32:15.836Z,932.73
2022-09-21T08:33:10.268Z,932.69
2022-09-21T08:34:10.283Z,932.57
2022-09-21T08:35:10.297Z,932.55
2022-09-21T08:36:10.310Z,932.51
2022-09-21T08:37:10.325Z,932.49
2022-09-21T08:38:10.337Z,932.54
2022-09-21T08:39:10.352Z,932.54
2022-09-21T08:40:10.441Z,932.55
2022-09-21T08:41:10.379Z,932.58
2022-09-21T08:42:10.393Z,932.58
2022-09-21T08:43:10.424Z,932.55
2022-09-21T08:44:10.422Z,932.52
2022-09-21T08:45:10.433Z,932.52
2022-09-21T08:46:10.448Z,932.57
2022-09-21T08:47:10.468Z,932.54
2022-09-21T08:48:10.475Z,932.53
2022-09-21T08:49:10.494Z,932.48
2022-09-21T08:50:10.501Z,932.49
2022-09-21T08:51:10.515Z,932.58
2022-09-21T08:52:13.218Z,932.59
2022-09-21T08:53:10.542Z,932.67
2022-09-21T08:54:10.556Z,932.69
2022-09-21T08:55:14.177Z,932.76
2022-09-21T08:56:10.789Z,932.76
2022-09-21T08:57:10.596Z,932.79
2022-09-21T08:58:10.611Z,932.76
2022-09-21T08:59:10.642Z,932.76
2022-09-21T09:00:10.638Z,932.71
2022-09-21T09:01:10.699Z,932.70
2022-09-21T09:02:10.767Z,932.67
2022-09-21T09:03:10.680Z,932.63
2022-09-21T09:04:10.694Z,932.66
2022-09-21T09:05:10.707Z,932.62
2022-09-21T09:06:10.723Z,932.63
2022-09-21T09:07:10.739Z,932.60
2022-09-21T09:08:10.746Z,932.59
2022-09-21T09:09:10.760Z,932.57
2022-09-21T09:10:10.774Z,932.54
2022-09-21T09:11:10.787Z,932.50
2022-09-21T09:12:11.327Z,932.53
2022-09-21T09:13:10.817Z,932.48
2022-09-21T09:14:10.828Z,932.43
2022-09-21T09:15:10.860Z,932.46
2022-09-21T09:16:10.906Z,932.49
2022-09-21T09:17:10.870Z,932.54
2022-09-21T09:18:10.882Z,932.59
2022-09-21T09:19:10.897Z,932.56
2022-09-21T09:20:10.914Z,932.55
2022-09-21T09:21:11.027Z,932.53
2022-09-21T09:22:10.943Z,932.51
2022-09-21T09:23:10.958Z,932.53
2022-09-21T09:24:10.968Z,932.55
2022-09-21T09:25:10.977Z,932.55
2022-09-21T09:26:10.991Z,932.60
2022-09-21T09:27:11.007Z,932.60
2022-09-21T09:28:11.024Z,932.52
2022-09-21T09:29:11.034Z,932.45
2022-09-21T09:30:11.049Z,932.43
2022-09-21T09:31:11.121Z,932.39
2022-09-21T09:32:11.074Z,932.39
2022-09-21T09:33:11.089Z,932.42
2022-09-21T09:34:11.100Z,932.37
2022-09-21T09:35:11.115Z,932.30
2022-09-21T09:36:11.129Z,932.32
2022-09-21T09:37:11.142Z,932.28
2022-09-21T09:38:11.157Z,932.29
2022-09-21T09:39:11.168Z,932.31
2022-09-21T09:40:11.211Z,932.22
2022-09-21T09:41:11.195Z,932.25
2022-09-21T09:42:11.208Z,932.27
2022-09-21T09:43:11.223Z,932.28
2022-09-21T09:44:11.244Z,932.29
2022-09-21T09:45:11.250Z,932.31
2022-09-21T09:46:13.339Z,932.36
2022-09-21T09:47:11.296Z,932.38
2022-09-21T09:48:11.291Z,932.37
2022-09-21T09:49:11.304Z,932.37
2022-09-21T09:50:11.320Z,932.37
2022-09-21T09:51:11.337Z,932.38
2022-09-21T09:52:11.346Z,932.42
2022-09-21T09:53:11.358Z,932.41
2022-09-21T09:54:11.433Z,932.41
2022-09-21T09:55:11.386Z,932.41
2022-09-21T09:56:11.402Z,932.41
2022-09-21T09:57:11.413Z,932.43
2022-09-21T09:58:11.427Z,932.41
2022-09-21T09:59:11.441Z,932.40
2022-09-21T10:00:11.456Z,932.33
2022-09-21T10:01:11.468Z,932.31
2022-09-21T10:02:11.582Z,932.31
2022-09-21T10:03:11.516Z,932.30
2022-09-21T10:04:11.554Z,932.33
2022-09-21T10:05:11.523Z,932.39
2022-09-21T10:06:11.537Z,932.40
2022-09-21T10:07:11.550Z,932.34
2022-09-21T10:08:11.564Z,932.36
2022-09-21T10:09:11.577Z,932.33
2022-09-21T10:10:11.593Z,932.33
2022-09-21T10:11:11.605Z,932.31
2022-09-21T10:12:11.616Z,932.36
2022-09-21T10:13:11.631Z,932.37
2022-09-21T10:14:11.647Z,932.35
2022-09-21T10:15:11.659Z,932.40
2022-09-21T10:16:11.736Z,932.46
2022-09-21T10:17:11.687Z,932.46
2022-09-21T10:18:11.700Z,932.49
2022-09-21T10:19:11.731Z,932.49
2022-09-21T10:20:11.727Z,932.49
2022-09-21T10:21:11.740Z,932.48
2022-09-21T10:22:11.754Z,932.48
2022-09-21T10:23:11.766Z,932.56
2022-09-21T10:24:11.780Z,932.53
2022-09-21T10:25:11.793Z,932.60
2022-09-21T10:26:11.808Z,932.60
2022-09-21T10:27:11.828Z,932.71
2022-09-21T10:28:11.837Z,932.74
2022-09-21T10:29:11.847Z,932.82
2022-09-21T10:30:11.861Z,932.84
2022-09-21T10:31:11.934Z,932.82
2022-09-21T10:32:14.565Z,932.83
2022-09-21T10:33:11.901Z,932.85
2022-09-21T10:34:11.918Z,932.80
2022-09-21T10:35:11.955Z,932.79
2022-09-21T10:36:11.945Z,932.74
2022-09-21T10:37:11.958Z,932.72
2022-09-21T10:38:11.969Z,932.74
2022-09-21T10:39:11.984Z,932.72
2022-09-21T10:40:12.048Z,932.76
2022-09-21T10:41:12.010Z,932.79
2022-09-21T10:42:12.024Z,932.80
2022-09-21T10:43:12.038Z,932.75
2022-09-21T10:44:12.051Z,932.78
2022-09-21T10:45:12.064Z,932.79
2022-09-21T10:46:12.118Z,932.80
2022-09-21T10:47:14.613Z,932.81
2022-09-21T10:48:12.107Z,932.82
2022-09-21T10:49:12.121Z,932.80
2022-09-21T10:50:12.134Z,932.77
2022-09-21T10:51:12.166Z,932.73
2022-09-21T10:52:12.163Z,932.71
2022-09-21T10:53:12.174Z,932.74
2022-09-21T10:54:12.187Z,932.75
2022-09-21T10:55:12.201Z,932.80
2022-09-21T10:56:16.093Z,932.83
2022-09-21T10:57:12.226Z,932.85
2022-09-21T10:58:12.241Z,932.89
2022-09-21T10:59:12.254Z,932.90
2022-09-21T11:00:12.270Z,932.94
2022-09-21T11:01:12.334Z,932.94
2022-09-21T11:02:12.334Z,932.92
2022-09-21T11:03:12.319Z,932.85
2022-09-21T11:04:12.323Z,932.87
2022-09-21T11:05:12.336Z,932.85
2022-09-21T11:06:12.351Z,932.84
2022-09-21T11:07:12.383Z,932.86
2022-09-21T11:08:12.377Z,932.93
2022-09-21T11:09:12.393Z,932.98
2022-09-21T11:10:12.404Z,932.97
2022-09-21T11:11:12.419Z,933.00
2022-09-21T11:12:12.431Z,932.95
2022-09-21T11:13:12.446Z,932.95
2022-09-21T11:14:12.456Z,932.96
2022-09-21T11:15:12.475Z,932.96
2022-09-21T11:16:12.576Z,932.92
2022-09-21T11:17:12.501Z,932.94
2022-09-21T11:18:12.513Z,932.92
2022-09-21T11:19:12.541Z,932.89
2022-09-21T11:20:12.542Z,932.90
2022-09-21T11:21:12.553Z,932.97
2022-09-21T11:22:12.568Z,932.97
2022-09-21T11:23:12.604Z,932.94
2022-09-21T11:24:12.596Z,932.99
2022-09-21T11:25:12.611Z,932.98
2022-09-21T11:26:12.622Z,933.00
2022-09-21T11:27:12.636Z,933.02
2022-09-21T11:28:12.647Z,933.00
2022-09-21T11:29:12.662Z,932.98
2022-09-21T11:30:12.676Z,932.97
2022-09-21T11:31:12.716Z,933.00
2022-09-21T11:32:12.703Z,933.00
2022-09-21T11:33:12.717Z,933.00
2022-09-21T11:34:12.729Z,932.93
2022-09-21T11:35:12.751Z,932.94
2022-09-21T11:36:12.759Z,932.96
2022-09-21T11:37:12.768Z,932.99
2022-09-21T11:38:12.784Z,933.03
2022-09-21T11:39:12.818Z,933.01
2022-09-21T11:40:12.891Z,933.03
2022-09-21T11:41:12.823Z,933.02
2022-09-21T11:42:12.837Z,933.05
2022-09-21T11:43:12.851Z,933.06
2022-09-21T11:44:16.728Z,933.11
2022-09-21T11:45:12.877Z,933.08
2022-09-21T11:46:12.983Z,933.08
2022-09-21T11:47:12.917Z,933.10
2022-09-21T11:48:12.919Z,933.18
2022-09-21T11:49:12.931Z,933.22
2022-09-21T11:50:29.723Z,933.22
2022-09-21T11:51:12.966Z,933.23
2022-09-21T11:52:12.978Z,933.24
2022-09-21T11:53:12.989Z,933.23
2022-09-21T11:54:13.000Z,933.23
2022-09-21T11:55:13.033Z,933.26
2022-09-21T11:56:13.028Z,933.24
2022-09-21T11:57:13.050Z,933.26
2022-09-21T11:58:13.056Z,933.28
2022-09-21T11:59:13.070Z,933.28
2022-09-21T12:00:13.085Z,933.30
2022-09-21T12:01:13.109Z,933.32
2022-09-21T12:02:13.267Z,933.33
2022-09-21T12:03:13.125Z,933.33
2022-09-21T12:04:13.138Z,933.38
2022-09-21T12:05:13.150Z,933.37
2022-09-21T12:06:13.174Z,933.39
2022-09-21T12:07:13.179Z,933.40
2022-09-21T12:08:13.193Z,933.42
2022-09-21T12:09:13.204Z,933.47
2022-09-21T12:10:13.219Z,933.46
2022-09-21T12:11:13.264Z,933.46
2022-09-21T12:12:13.247Z,933.46
2022-09-21T12:13:13.260Z,933.41
2022-09-21T12:14:13.291Z,933.36
2022-09-21T12:15:13.333Z,933.38
2022-09-21T12:16:13.300Z,933.38
2022-09-21T12:17:13.314Z,933.42
2022-09-21T12:18:13.327Z,933.53
2022-09-21T12:19:13.341Z,933.59
2022-09-21T12:20:13.356Z,933.61
2022-09-21T12:21:13.367Z,933.67
2022-09-21T12:22:13.381Z,933.70
2022-09-21T12:23:13.398Z,933.75
2022-09-21T12:24:13.410Z,933.71
2022-09-21T12:25:13.446Z,933.66
2022-09-21T12:26:13.435Z,933.60
2022-09-21T12:27:13.472Z,933.58
2022-09-21T12:28:13.464Z,933.57
2022-09-21T12:29:13.479Z,933.57
2022-09-21T12:30:13.491Z,933.59